»·PEaware :: N101JP KCMA-KSBA

N101JP :: KCMA-KSBA

FLIGHT INFORMATION

Flight Status: Arrived
Operator: Privately registered:
United States
More flights under this callsign
Pilot: James T. (870)
Aircraft: PILATUS PC-12 EAGLE
(PC12)
More flights by this aircraft type
Origin: KCMA Camarillo
United States
Destination: KSBA Santa Barbara Mun
United States
More flights between these airports :: More routes between these airports
Route: VTU282 KWANG
File this flight plan on PilotEdge
Remarks:
Altitude:
(Current/Filed)
4,000ft
Speed:
(Current/Filed)
200kts
Departed: 14-Jun-15 08:32 AM
Arrived: 14-Jun-15 09:00 AM
Distance/Time
Traveled:
39nm/0:28
Distance/Time
To Go:
Arrived

Flight Plot

Page will automatically refresh every two minutes.


Map Options




Map Legend


Flown Route
Filed Route
Departure Airport
Arrival Airport
Navaid (VOR, NDB)
Fix

Horizontal Profiles

Position Reports

Time Latitude Longitude Heading Altitude Ground
Speed
14-Jun-15 08:15 34.209718 -119.078289 316 82ft 0kts
14-Jun-15 08:16 34.209718 -119.078289 316 82ft 0kts
14-Jun-15 08:17 34.209718 -119.078289 316 82ft 0kts
14-Jun-15 08:18 34.209718 -119.078289 316 82ft 0kts
14-Jun-15 08:19 34.209718 -119.078289 316 82ft 0kts
14-Jun-15 08:20 34.209754 -119.078328 318 82ft 1kts
14-Jun-15 08:21 34.210692 -119.079520 292 82ft 7kts
14-Jun-15 08:22 34.210806 -119.082444 273 82ft 10kts
14-Jun-15 08:23 34.212699 -119.083738 359 82ft 10kts
14-Jun-15 08:24 34.212799 -119.083737 359 82ft 0kts
14-Jun-15 08:25 34.212799 -119.083737 359 82ft 0kts
14-Jun-15 08:26 34.213653 -119.084187 270 83ft 14kts
14-Jun-15 08:27 34.218557 -119.117060 288 685ft 155kts
14-Jun-15 08:28 34.231811 -119.166427 288 2196ft 159kts
14-Jun-15 08:29 34.244863 -119.215464 288 3707ft 160kts
14-Jun-15 08:30 34.256290 -119.271057 283 4008ft 190kts
14-Jun-15 08:31 34.268142 -119.333442 283 4001ft 197kts
14-Jun-15 08:32 34.280256 -119.397084 283 4000ft 199kts
14-Jun-15 08:33 34.293981 -119.460684 288 3998ft 196kts
14-Jun-15 08:34 34.307731 -119.522736 275 4004ft 193kts
14-Jun-15 08:35 34.313062 -119.586311 275 3996ft 191kts
14-Jun-15 08:36 34.314659 -119.648656 263 4011ft 186kts
14-Jun-15 08:37 34.307723 -119.709462 262 3998ft 184kts
14-Jun-15 08:38 34.300670 -119.769772 262 3999ft 181kts
14-Jun-15 08:39 34.293630 -119.829616 262 3999ft 180kts
14-Jun-15 08:40 34.286639 -119.888875 262 3999ft 180kts
14-Jun-15 08:41 34.279629 -119.948004 262 3999ft 180kts
14-Jun-15 08:42 34.272629 -120.006886 262 3999ft 179kts
14-Jun-15 08:43 34.265724 -120.064656 264 4000ft 169kts
14-Jun-15 08:44 34.297224 -120.087494 356 2989ft 155kts
14-Jun-15 08:45 34.333315 -120.088365 358 2799ft 125kts
14-Jun-15 08:46 34.364630 -120.088603 359 2815ft 124kts
14-Jun-15 08:47 34.396808 -120.088815 359 2812ft 128kts
14-Jun-15 08:48 34.421836 -120.069850 82 2145ft 142kts
14-Jun-15 08:49 34.423779 -120.026845 87 1792ft 117kts
14-Jun-15 08:50 34.424617 -119.990882 88 1807ft 113kts
14-Jun-15 08:51 34.425383 -119.954317 88 1612ft 112kts
14-Jun-15 08:52 34.426164 -119.917828 88 1059ft 106kts
14-Jun-15 08:53 34.426916 -119.882499 88 500ft 102kts
14-Jun-15 08:54 34.427340 -119.850124 90 19ft 48kts
14-Jun-15 08:55 34.429029 -119.845796 70 18ft 0kts
14-Jun-15 08:56 34.429029 -119.845796 70 18ft 0kts
14-Jun-15 08:57 34.429029 -119.845796 70 18ft 0kts
14-Jun-15 08:58 34.429029 -119.845796 70 18ft 0kts
14-Jun-15 08:59 34.429029 -119.845796 70 18ft 0kts
14-Jun-15 09:00 34.429029 -119.845796 70 18ft 0kts
14-Jun-15 09:01 34.429029 -119.845796 70 18ft 0kts
14-Jun-15 09:02 34.429029 -119.845796 70 18ft 0kts
14-Jun-15 09:03 34.429029 -119.845796 70 18ft 0kts
14-Jun-15 09:04 34.429029 -119.845796 70 18ft 0kts
14-Jun-15 09:05 34.429029 -119.845796 70 18ft 0kts
14-Jun-15 09:06 34.429029 -119.845796 70 18ft 0kts
14-Jun-15 09:07 34.429029 -119.845796 70 18ft 0kts
14-Jun-15 09:08 34.429029 -119.845796 70 18ft 0kts
14-Jun-15 09:09 34.429029 -119.845796 70 18ft 0kts

Navigation Log

Ident Type
Flight plan parsing failed, navigation log unavailable